Time;durP1;ratioP1;P1;durP2;ratioP2;P2;SDS_P1;SDS_P2;PMS_P1;PMS_P2;Temp;Humidity;BMP_temperature;BMP_pressure;BME280_temperature;BME280_humidity;BME280_pressure;Samples;Min_cycle;Max_cycle;Signal;HPM_P1;HPM_P2
2023/06/04 00:00:31;;;;;;;2.77;2.50;;;;;;;21.60;59.91;97512.69;5052050;28;20204;-29
2023/06/04 00:02:57;;;;;;;2.57;2.37;;;;;;;21.60;59.99;97506.69;5067398;22;20224;-26
2023/06/04 00:05:25;;;;;;;3.57;2.60;;;;;;;21.60;60.05;97515.25;5069195;28;20204;-26
2023/06/04 00:07:52;;;;;;;2.80;2.60;;;;;;;21.58;60.01;97505.78;5065418;28;20228;-26
2023/06/04 00:10:18;;;;;;;4.43;2.70;;;;;;;21.58;59.82;97506.66;5046401;28;20257;-26
2023/06/04 00:12:45;;;;;;;2.50;2.30;;;;;;;21.58;59.90;97504.09;5063870;28;20220;-26
2023/06/04 00:15:13;;;;;;;2.80;2.60;;;;;;;21.58;59.90;97498.97;5063318;28;20204;-26
2023/06/04 00:17:40;;;;;;;2.50;2.30;;;;;;;21.58;59.90;97501.53;5059260;28;20270;-26
2023/06/04 00:20:07;;;;;;;2.47;2.27;;;;;;;21.58;60.00;97504.09;5051750;28;20634;-26
2023/06/04 00:22:34;;;;;;;2.90;2.40;;;;;;;21.58;59.97;97498.09;5053251;28;20204;-26
2023/06/04 00:25:00;;;;;;;2.97;2.67;;;;;;;21.58;59.74;97498.09;5051603;28;20232;-26
2023/06/04 00:27:27;;;;;;;4.07;2.60;;;;;;;21.58;59.78;97498.09;5059944;28;20246;-26
2023/06/04 00:29:53;;;;;;;3.00;2.67;;;;;;;21.59;59.84;97499.88;5056994;28;20197;-26
2023/06/04 00:32:20;;;;;;;2.97;2.60;;;;;;;21.58;59.75;97501.53;5051916;28;20266;-26
2023/06/04 00:34:51;;;;;;;2.63;2.43;;;;;;;21.59;59.77;97504.97;5045317;28;20258;-26
2023/06/04 00:37:18;;;;;;;2.80;2.20;;;;;;;21.58;59.77;97504.09;5044822;28;20205;-26
2023/06/04 00:39:44;;;;;;;2.60;2.40;;;;;;;21.59;59.85;97507.53;5044499;28;20297;-26
2023/06/04 00:42:11;;;;;;;3.27;2.50;;;;;;;21.59;60.15;97504.97;5052682;28;20205;-26
2023/06/04 00:44:44;;;;;;;4.37;2.73;;;;;;;21.57;59.91;97504.94;5038185;28;20275;-26
2023/06/04 00:47:14;;;;;;;3.83;2.67;;;;;;;21.58;59.86;97498.09;5053433;28;20211;-26
2023/06/04 00:49:41;;;;;;;2.80;2.50;;;;;;;21.59;59.71;97500.72;5050969;28;20201;-26
2023/06/04 00:52:08;;;;;;;2.70;2.50;;;;;;;21.58;59.70;97498.97;5050908;28;20334;-26
2023/06/04 00:54:38;;;;;;;2.60;2.40;;;;;;;21.58;59.78;97500.66;5056989;28;20270;-26
2023/06/04 00:57:05;;;;;;;2.67;2.47;;;;;;;21.58;59.68;97504.09;5055176;28;20204;-26
2023/06/04 00:59:32;;;;;;;2.60;2.40;;;;;;;21.59;59.93;97507.53;5053168;28;20662;-26
2023/06/04 01:02:12;;;;;;;2.53;2.30;;;;;;;21.58;59.87;97509.22;5047746;28;20212;-26
2023/06/04 01:04:44;;;;;;;2.70;2.50;;;;;;;21.58;59.89;97504.09;5032721;28;20722;-26
2023/06/04 01:07:12;;;;;;;3.07;2.67;;;;;;;21.58;59.48;97509.22;5024393;28;20208;-26
2023/06/04 01:09:38;;;;;;;2.50;2.30;;;;;;;21.59;60.01;97510.09;5026854;28;20725;-26
2023/06/04 01:12:06;;;;;;;3.03;2.27;;;;;;;21.58;59.82;97506.66;5057783;28;20196;-26
2023/06/04 01:14:36;;;;;;;2.33;2.13;;;;;;;21.59;59.71;97508.38;5050930;28;20225;-26
2023/06/04 01:17:08;;;;;;;2.40;2.20;;;;;;;21.59;59.93;97510.09;5053876;28;20201;-26
2023/06/04 01:19:54;;;;;;;2.73;2.27;;;;;;;21.59;59.79;97517.75;5042813;28;20221;-26
2023/06/04 01:22:41;;;;;;;2.50;2.30;;;;;;;21.58;59.71;97508.34;5059056;28;20227;-26
2023/06/04 01:25:19;;;;;;;4.97;2.50;;;;;;;21.58;60.03;97514.31;5050818;28;20196;-26
2023/06/04 01:27:50;;;;;;;2.50;2.30;;;;;;;21.58;59.88;97521.13;5042220;28;20193;-26
2023/06/04 01:30:17;;;;;;;2.67;2.43;;;;;;;21.57;59.91;97511.72;5060386;28;20624;-26
2023/06/04 01:32:44;;;;;;;2.70;2.40;;;;;;;21.56;59.95;97518.53;5054225;28;20715;-26
2023/06/04 01:35:11;;;;;;;2.40;2.20;;;;;;;21.56;59.67;97518.53;5032842;28;20204;-26
2023/06/04 01:37:38;;;;;;;2.30;2.10;;;;;;;21.56;59.77;97521.06;5055953;28;20660;-26
2023/06/04 01:40:05;;;;;;;2.57;2.37;;;;;;;21.57;59.85;97521.97;5045737;28;20217;-26
2023/06/04 01:42:32;;;;;;;2.87;2.33;;;;;;;21.56;59.92;97523.63;5057880;28;20210;-26
2023/06/04 01:44:58;;;;;;;2.50;2.30;;;;;;;21.57;59.73;97520.28;5055926;28;20196;-26
2023/06/04 01:47:25;;;;;;;2.50;2.20;;;;;;;21.57;59.68;97524.50;5052360;28;20201;-26
2023/06/04 01:49:52;;;;;;;2.43;2.10;;;;;;;21.57;59.61;97516.84;5055003;28;20198;-26
2023/06/04 01:52:20;;;;;;;2.37;2.17;;;;;;;21.58;59.75;97521.13;5048726;28;20200;-26
2023/06/04 01:54:52;;;;;;;2.30;2.10;;;;;;;21.58;59.70;97523.69;5051131;28;20219;-26
2023/06/04 01:57:20;;;;;;;2.80;2.60;;;;;;;21.58;59.69;97523.69;5051374;28;20698;-26
2023/06/04 01:59:47;;;;;;;2.77;2.50;;;;;;;21.57;59.63;97524.50;5030003;28;20248;-26
2023/06/04 02:02:14;;;;;;;2.50;2.30;;;;;;;21.58;59.90;97523.69;5058151;28;20207;-26
2023/06/04 02:04:41;;;;;;;2.30;2.10;;;;;;;21.58;60.02;97526.25;5053298;28;20266;-26
2023/06/04 02:07:09;;;;;;;2.30;2.10;;;;;;;21.58;59.76;97522.00;5053358;28;20205;-26
2023/06/04 02:09:36;;;;;;;2.53;2.33;;;;;;;21.58;59.66;97529.66;5043168;28;20201;-26
2023/06/04 02:12:03;;;;;;;2.50;2.30;;;;;;;21.57;59.65;97525.38;5052930;28;20576;-26
2023/06/04 02:14:29;;;;;;;2.53;2.17;;;;;;;21.57;59.86;97525.38;5064313;28;20258;-26
2023/06/04 02:16:57;;;;;;;2.50;2.30;;;;;;;21.58;59.74;97523.69;5051850;28;20200;-26
2023/06/04 02:19:25;;;;;;;3.27;2.40;;;;;;;21.57;59.74;97525.38;5043515;28;20226;-26
2023/06/04 02:21:53;;;;;;;2.27;2.07;;;;;;;21.58;60.02;97523.69;5054842;28;20198;-26
2023/06/04 02:24:20;;;;;;;2.03;1.83;;;;;;;21.58;59.79;97524.56;5049917;28;20225;-26
2023/06/04 02:26:46;;;;;;;2.33;2.13;;;;;;;21.58;59.78;97526.25;5058789;28;20247;-26
2023/06/04 02:29:13;;;;;;;2.37;2.17;;;;;;;21.58;60.00;97523.69;5045105;28;20260;-26
2023/06/04 02:31:40;;;;;;;2.47;2.27;;;;;;;21.57;59.82;97520.28;5052527;28;20197;-26
2023/06/04 02:34:07;;;;;;;2.47;2.27;;;;;;;21.58;59.79;97526.25;5043927;28;20654;-26
2023/06/04 02:36:34;;;;;;;3.90;2.40;;;;;;;21.56;59.75;97531.31;5056796;28;20201;-26
2023/06/04 02:39:01;;;;;;;2.37;2.10;;;;;;;21.58;59.70;97522.00;5047667;28;20235;-26
2023/06/04 02:41:27;;;;;;;2.43;2.23;;;;;;;21.58;59.94;97526.25;5050745;28;20234;-26
2023/06/04 02:43:54;;;;;;;2.57;2.37;;;;;;;21.58;59.96;97522.00;5060316;28;20278;-26
2023/06/04 02:46:20;;;;;;;2.40;2.20;;;;;;;21.57;59.71;97522.84;5050850;28;20437;-26
2023/06/04 02:48:47;;;;;;;2.77;2.33;;;;;;;21.57;59.99;97522.84;5045349;28;20288;-26
2023/06/04 02:51:14;;;;;;;2.20;2.00;;;;;;;21.57;59.84;97530.50;5053647;28;20679;-26
2023/06/04 02:53:40;;;;;;;2.40;2.20;;;;;;;21.56;59.96;97523.63;5053570;28;20225;-26
2023/06/04 02:56:07;;;;;;;2.07;1.97;;;;;;;21.56;59.90;97526.19;5051150;28;20304;-26
2023/06/04 02:58:39;;;;;;;1.90;1.80;;;;;;;21.57;59.85;97519.41;5065686;28;20204;-26
2023/06/04 03:01:06;;;;;;;3.20;2.07;;;;;;;21.56;59.89;97530.47;5052472;28;20205;-26
2023/06/04 03:03:34;;;;;;;2.83;2.10;;;;;;;21.56;59.96;97527.91;5039462;28;20316;-26
2023/06/04 03:06:02;;;;;;;2.23;2.03;;;;;;;21.56;59.73;97531.31;5056493;28;20621;-26
2023/06/04 03:08:28;;;;;;;1.80;1.70;;;;;;;21.57;59.72;97527.06;5060133;28;20201;-26
2023/06/04 03:10:55;;;;;;;2.20;2.00;;;;;;;21.58;59.85;97536.47;5058439;28;20578;-26
2023/06/04 03:13:22;;;;;;;2.23;2.03;;;;;;;21.57;59.88;97537.31;5036499;28;20274;-26
2023/06/04 03:15:49;;;;;;;1.90;1.80;;;;;;;21.57;59.68;97545.84;5057623;28;20249;-26
2023/06/04 03:18:15;;;;;;;2.00;1.90;;;;;;;21.58;59.80;97541.59;5054052;28;20208;-26
2023/06/04 03:20:42;;;;;;;2.40;2.20;;;;;;;21.57;59.83;97535.63;5063009;28;20266;-26
2023/06/04 03:23:08;;;;;;;2.00;1.90;;;;;;;21.58;59.86;97554.38;5059154;28;20212;-26
2023/06/04 03:25:35;;;;;;;2.30;2.10;;;;;;;21.58;59.72;97552.69;5021596;28;20232;-26
2023/06/04 03:28:02;;;;;;;1.90;1.80;;;;;;;21.58;59.78;97552.69;5054960;28;20243;-26
2023/06/04 03:30:28;;;;;;;2.20;2.00;;;;;;;21.59;59.67;97556.13;5054783;28;20587;-26
2023/06/04 03:32:55;;;;;;;2.60;2.20;;;;;;;21.58;59.84;97555.25;5053887;28;20244;-26
2023/06/04 03:35:21;;;;;;;2.83;2.10;;;;;;;21.58;59.88;97559.47;5046387;28;20289;-26
2023/06/04 03:37:48;;;;;;;2.13;2.00;;;;;;;21.59;59.52;97561.25;5057499;28;20250;-26
2023/06/04 03:40:15;;;;;;;2.13;1.80;;;;;;;21.57;59.94;97562.88;5053411;28;20275;-26
2023/06/04 03:42:42;;;;;;;2.37;1.77;;;;;;;21.58;59.65;97560.34;5056280;28;20196;-26
2023/06/04 03:45:08;;;;;;;5.87;2.60;;;;;;;21.59;59.65;97561.25;5048916;28;20205;-26
2023/06/04 03:47:35;;;;;;;11.50;2.47;;;;;;;21.59;59.59;97558.69;5052410;28;20255;-26
2023/06/04 03:50:02;;;;;;;6.77;2.37;;;;;;;21.61;59.56;97568.13;5060789;28;20260;-26
2023/06/04 03:52:29;;;;;;;7.47;2.30;;;;;;;21.61;59.49;97565.56;5059684;28;20205;-26
2023/06/04 03:54:56;;;;;;;5.60;2.20;;;;;;;21.62;59.40;97576.69;5064394;28;20241;-26
2023/06/04 03:57:22;;;;;;;4.03;2.20;;;;;;;21.63;59.52;97565.63;5062196;28;20200;-26
2023/06/04 03:59:50;;;;;;;7.90;2.70;;;;;;;21.64;59.51;97570.78;5058003;28;20668;-26
2023/06/04 04:02:19;;;;;;;4.27;2.47;;;;;;;21.66;59.59;97568.25;5044903;28;20255;-26
2023/06/04 04:04:46;;;;;;;3.83;2.20;;;;;;;21.67;59.40;97569.97;5041797;28;20490;-26
2023/06/04 04:07:12;;;;;;;4.83;2.57;;;;;;;21.67;59.49;97570.88;5053718;28;20200;-26
2023/06/04 04:09:39;;;;;;;3.43;2.17;;;;;;;21.67;59.71;97568.31;5059703;28;20224;-26
2023/06/04 04:12:06;;;;;;;4.07;2.20;;;;;;;21.69;59.58;97570.91;5055939;28;20231;-26
2023/06/04 04:14:32;;;;;;;2.77;2.20;;;;;;;21.69;59.51;97573.47;5039931;28;20216;-26
2023/06/04 04:16:59;;;;;;;5.50;2.50;;;;;;;21.70;59.46;97578.63;5056357;28;20655;-26
2023/06/04 04:19:28;;;;;;;5.37;2.30;;;;;;;21.70;59.34;97572.63;5044558;28;20223;-26
2023/06/04 04:21:55;;;;;;;3.03;2.20;;;;;;;21.70;59.50;97575.19;5057338;28;20200;-26
2023/06/04 04:24:25;;;;;;;5.77;2.30;;;;;;;21.70;59.51;97573.50;5060925;28;20220;-26
2023/06/04 04:26:55;;;;;;;4.50;2.23;;;;;;;21.70;58.18;97583.75;5041982;28;20205;-26
2023/06/04 04:29:22;;;;;;;6.13;2.50;;;;;;;21.70;58.31;97585.41;5059717;28;20200;-26
2023/06/04 04:31:49;;;;;;;3.30;2.30;;;;;;;21.71;58.44;97584.63;5059153;28;20196;-26
2023/06/04 04:34:16;;;;;;;3.47;2.00;;;;;;;21.71;58.45;97587.19;5042749;28;20591;-26
2023/06/04 04:36:44;;;;;;;2.50;2.30;;;;;;;21.71;58.42;97587.19;5059975;28;20200;-26
2023/06/04 04:39:10;;;;;;;5.93;2.50;;;;;;;21.72;58.44;97588.91;5059896;28;20200;-26
2023/06/04 04:41:37;;;;;;;3.60;2.40;;;;;;;21.73;58.55;97589.78;5064585;28;20207;-26
2023/06/04 04:44:06;;;;;;;3.80;2.60;;;;;;;21.73;58.42;97589.78;5046920;28;20437;-26
2023/06/04 04:46:33;;;;;;;5.40;2.57;;;;;;;21.73;58.44;97589.78;5046606;28;20209;-26
2023/06/04 04:49:00;;;;;;;3.33;2.53;;;;;;;21.75;58.76;97590.72;5045681;28;20196;-26
2023/06/04 04:51:26;;;;;;;2.73;2.10;;;;;;;21.75;58.56;97590.72;5043019;28;20251;-26
2023/06/04 04:53:54;;;;;;;3.07;2.30;;;;;;;21.74;58.80;97584.75;5059835;28;20586;-26
2023/06/04 04:56:22;;;;;;;4.20;2.43;;;;;;;21.76;58.92;97590.75;5064704;28;20283;-26
2023/06/04 04:58:49;;;;;;;3.20;2.07;;;;;;;21.77;58.94;97597.63;5052113;28;20224;-26
2023/06/04 05:01:15;;;;;;;5.87;2.23;;;;;;;21.78;58.47;97601.03;5043634;28;20220;-26
2023/06/04 05:03:42;;;;;;;3.07;2.10;;;;;;;21.78;58.48;97598.47;5046205;28;20236;-26
2023/06/04 05:06:09;;;;;;;3.10;2.00;;;;;;;21.78;58.47;97607.03;5051293;28;20201;-26
2023/06/04 05:08:35;;;;;;;5.97;2.60;;;;;;;21.78;58.45;97604.47;5054187;28;20247;-26
2023/06/04 05:11:02;;;;;;;4.73;2.40;;;;;;;21.78;58.41;97606.16;5047111;28;20189;-26
2023/06/04 05:13:28;;;;;;;2.37;2.10;;;;;;;21.80;58.60;97614.75;5046464;28;20220;-26
2023/06/04 05:15:56;;;;;;;3.60;2.07;;;;;;;21.80;58.17;97614.75;5051622;28;20241;-26
2023/06/04 05:18:28;;;;;;;4.87;2.90;;;;;;;21.80;58.76;97617.31;5048828;28;20312;-26
2023/06/04 05:20:55;;;;;;;3.07;2.60;;;;;;;21.80;58.80;97614.75;5045431;28;20295;-26
2023/06/04 05:23:22;;;;;;;9.20;2.73;;;;;;;21.80;58.85;97620.75;5044592;28;20255;-26
2023/06/04 05:25:48;;;;;;;4.87;2.40;;;;;;;21.81;58.77;97625.03;5048196;28;20800;-26
2023/06/04 05:28:15;;;;;;;3.67;2.20;;;;;;;21.82;58.94;97620.78;5049167;28;20201;-26
2023/06/04 05:30:42;;;;;;;5.10;2.47;;;;;;;21.82;59.09;97629.34;5050750;28;20266;-26
2023/06/04 05:33:17;;;;;;;3.23;2.60;;;;;;;21.83;58.81;97625.06;5046414;28;20232;-26
2023/06/04 05:35:46;;;;;;;4.43;2.20;;;;;;;21.83;58.70;97635.31;5049318;28;20200;-26
2023/06/04 05:38:17;;;;;;;6.43;2.27;;;;;;;21.82;58.65;97631.03;5047027;28;20200;-26
2023/06/04 05:40:43;;;;;;;2.77;2.20;;;;;;;21.81;58.45;97630.13;5050352;28;20263;-26
2023/06/04 05:43:10;;;;;;;4.20;1.87;;;;;;;21.80;58.55;97640.31;5055332;28;20256;-26
2023/06/04 05:45:37;;;;;;;4.83;2.10;;;;;;;21.79;58.17;97634.34;5052876;28;20239;-26
2023/06/04 05:48:04;;;;;;;3.47;2.20;;;;;;;21.78;58.51;97635.16;5051032;28;20561;-26
2023/06/04 05:50:31;;;;;;;3.40;2.20;;;;;;;21.77;58.43;97635.13;5051568;28;20395;-26
2023/06/04 05:52:58;;;;;;;2.40;2.13;;;;;;;21.77;58.76;97647.91;5054254;28;20274;-26
2023/06/04 05:55:24;;;;;;;3.43;2.20;;;;;;;21.75;58.57;97652.09;5055156;28;20209;-26
2023/06/04 05:57:51;;;;;;;2.90;2.10;;;;;;;21.73;58.71;97647.78;5062236;28;20235;-26
2023/06/04 06:00:18;;;;;;;2.70;2.03;;;;;;;21.69;58.81;97642.53;5062989;28;20225;-26
2023/06/04 06:02:45;;;;;;;6.33;2.10;;;;;;;21.71;58.68;97651.13;5047495;28;20220;-26
2023/06/04 06:05:12;;;;;;;2.93;2.23;;;;;;;21.69;58.86;97650.19;5088785;22;20223;-32
2023/06/04 06:07:38;;;;;;;4.80;2.20;;;;;;;21.68;58.85;97653.59;5070936;28;20208;-28
2023/06/04 06:10:06;;;;;;;2.93;2.20;;;;;;;21.67;58.85;97651.84;5070974;28;20214;-28
2023/06/04 06:12:32;;;;;;;2.13;1.93;;;;;;;21.67;58.76;97656.94;5071713;28;20204;-28
2023/06/04 06:14:59;;;;;;;3.63;1.90;;;;;;;21.65;58.70;97654.34;5064164;28;20277;-28
2023/06/04 06:17:26;;;;;;;3.90;2.13;;;;;;;21.65;59.01;97651.78;5078596;28;20646;-32
2023/06/04 06:19:52;;;;;;;3.10;2.17;;;;;;;21.64;58.59;97655.19;5070575;28;20216;-29
2023/06/04 06:22:19;;;;;;;2.97;2.00;;;;;;;21.64;58.98;97654.28;5086203;28;20623;-28
2023/06/04 06:24:48;;;;;;;3.10;2.10;;;;;;;21.60;58.95;97655.03;5064957;28;20710;-28
2023/06/04 06:27:15;;;;;;;2.00;1.80;;;;;;;21.63;58.95;97657.69;5074362;28;20207;-30
2023/06/04 06:29:42;;;;;;;5.07;2.50;;;;;;;21.62;59.07;97659.38;5069398;28;20283;-28
2023/06/04 06:32:10;;;;;;;3.40;2.40;;;;;;;21.63;59.08;97660.25;5068014;28;20192;-28
2023/06/04 06:34:37;;;;;;;3.13;2.13;;;;;;;21.61;59.26;97656.75;5077202;28;20307;-28
2023/06/04 06:37:06;;;;;;;4.50;2.13;;;;;;;21.58;59.66;97649.88;5072238;28;20203;-28
2023/06/04 06:39:32;;;;;;;5.40;2.50;;;;;;;21.66;59.70;97665.47;5058549;28;20229;-29
2023/06/04 06:41:59;;;;;;;15.07;2.63;;;;;;;21.67;60.49;97670.63;5066939;28;20224;-28
2023/06/04 06:44:25;;;;;;;11.07;3.10;;;;;;;21.71;60.70;97675.00;5061467;28;20220;-28
2023/06/04 06:46:52;;;;;;;11.83;3.50;;;;;;;21.76;60.78;97675.16;5069223;28;20196;-29
2023/06/04 06:49:18;;;;;;;11.20;2.80;;;;;;;21.76;60.39;97670.06;5065516;28;20232;-29
2023/06/04 06:51:45;;;;;;;8.43;2.87;;;;;;;21.84;60.58;97675.44;5072964;28;20792;-28
2023/06/04 06:54:15;;;;;;;4.93;2.40;;;;;;;21.86;59.79;97672.09;5067739;28;20249;-28
2023/06/04 06:56:41;;;;;;;10.80;2.63;;;;;;;21.90;59.79;97670.50;5047119;28;20204;-28
2023/06/04 06:59:08;;;;;;;4.87;2.73;;;;;;;21.91;59.09;97668.00;5073017;28;20226;-28
2023/06/04 07:01:35;;;;;;;10.37;2.67;;;;;;;21.93;58.97;97668.03;5067955;28;20240;-28
2023/06/04 07:04:02;;;;;;;8.43;2.40;;;;;;;21.92;58.88;97667.16;5077250;28;20310;-28
2023/06/04 07:06:28;;;;;;;11.77;3.20;;;;;;;21.92;59.00;97673.97;5077302;28;20208;-28
2023/06/04 07:08:55;;;;;;;12.10;2.87;;;;;;;21.90;59.01;97679.03;5070188;28;20200;-28
2023/06/04 07:11:21;;;;;;;12.27;2.87;;;;;;;21.85;59.35;97662.69;5069406;28;20200;-28
2023/06/04 07:13:48;;;;;;;7.27;2.80;;;;;;;21.89;59.27;97676.41;5072925;28;20216;-28
2023/06/04 07:16:15;;;;;;;11.63;3.30;;;;;;;21.87;59.06;97672.97;5080001;28;20293;-28
2023/06/04 07:18:42;;;;;;;8.57;2.90;;;;;;;21.87;59.25;97665.28;5070996;28;20588;-28
2023/06/04 07:21:09;;;;;;;13.30;3.00;;;;;;;21.84;59.23;97671.16;5066366;28;20221;-32
2023/06/04 07:23:35;;;;;;;10.33;2.90;;;;;;;21.82;59.49;97672.84;5065174;28;20219;-29
2023/06/04 07:26:02;;;;;;;4.57;2.50;;;;;;;21.81;59.62;97667.63;5069514;28;20236;-28
2023/06/04 07:28:29;;;;;;;7.30;3.20;;;;;;;21.80;59.53;97673.59;5068772;28;20208;-29
2023/06/04 07:30:58;;;;;;;14.90;3.10;;;;;;;21.79;59.70;97670.16;5074307;28;20193;-29
2023/06/04 07:33:25;;;;;;;12.13;2.63;;;;;;;21.77;59.67;97664.13;5072955;28;20220;-29
2023/06/04 07:35:54;;;;;;;8.47;2.77;;;;;;;21.76;59.68;97669.22;5070951;28;20650;-28
2023/06/04 07:38:21;;;;;;;10.30;2.93;;;;;;;21.76;59.51;97666.66;5047188;28;20548;-28
2023/06/04 07:40:47;;;;;;;14.93;3.10;;;;;;;21.75;59.45;97662.34;5080295;28;20246;-29
2023/06/04 07:43:14;;;;;;;11.20;3.23;;;;;;;21.73;58.00;97658.00;5070945;28;20655;-28
2023/06/04 07:45:41;;;;;;;11.57;3.30;;;;;;;21.72;58.13;97657.97;5065010;28;20238;-33
2023/06/04 07:48:10;;;;;;;5.07;3.17;;;;;;;21.73;58.59;97659.69;5070719;28;20196;-28
2023/06/04 07:50:37;;;;;;;10.63;3.10;;;;;;;21.71;58.89;97656.25;5071200;28;20647;-29
2023/06/04 07:53:07;;;;;;;9.23;2.70;;;;;;;21.71;58.79;97656.25;5069732;28;20218;-28
2023/06/04 07:55:34;;;;;;;12.40;3.90;;;;;;;21.70;59.00;97652.81;5071366;28;20551;-28
2023/06/04 07:58:00;;;;;;;8.80;3.43;;;;;;;21.69;59.04;97655.31;5084492;28;20200;-28
2023/06/04 08:00:31;;;;;;;5.43;3.20;;;;;;;21.64;58.75;97652.63;5048873;28;20226;-30
2023/06/04 08:02:58;;;;;;;7.60;3.20;;;;;;;21.66;58.80;97653.53;5069418;28;20604;-29
2023/06/04 08:05:24;;;;;;;10.93;2.63;;;;;;;21.65;58.87;97656.91;5070395;28;20224;-28
2023/06/04 08:07:53;;;;;;;4.87;2.70;;;;;;;21.66;59.02;97656.09;5074492;28;20554;-28
2023/06/04 08:10:19;;;;;;;5.90;2.53;;;;;;;21.67;58.96;97667.19;5073022;28;20640;-29
2023/06/04 08:12:46;;;;;;;10.23;2.80;;;;;;;21.66;59.03;97657.78;5076810;28;20250;-29
2023/06/04 08:15:13;;;;;;;6.60;3.20;;;;;;;21.63;58.81;97655.13;5076713;28;20254;-29
2023/06/04 08:17:39;;;;;;;7.30;3.13;;;;;;;21.67;59.24;97664.63;5066909;28;20200;-28
2023/06/04 08:20:07;;;;;;;6.93;3.07;;;;;;;21.66;59.01;97656.09;5059796;28;20254;-29
2023/06/04 08:22:33;;;;;;;5.13;2.60;;;;;;;21.66;58.93;97656.09;5045743;28;20204;-28
2023/06/04 08:25:00;;;;;;;8.23;3.13;;;;;;;21.65;59.11;97656.91;5081769;28;20695;-28
2023/06/04 08:27:26;;;;;;;4.37;2.80;;;;;;;21.66;58.91;97661.22;5069864;28;20192;-37
2023/06/04 08:29:53;;;;;;;7.47;3.27;;;;;;;21.64;58.88;97665.41;5056675;28;20613;-30
2023/06/04 08:32:20;;;;;;;4.87;2.87;;;;;;;21.63;59.12;97667.91;5056571;28;20279;-28
2023/06/04 08:34:46;;;;;;;7.43;3.43;;;;;;;21.63;59.18;97666.25;5055355;28;20640;-29
2023/06/04 08:37:13;;;;;;;10.37;3.10;;;;;;;21.63;59.17;97668.78;5067726;28;20204;-29
2023/06/04 08:39:40;;;;;;;8.30;3.07;;;;;;;21.63;59.11;97663.69;5063125;28;20200;-28
2023/06/04 08:42:10;;;;;;;5.10;2.77;;;;;;;21.62;59.03;97656.81;5061121;28;20277;-28
2023/06/04 08:44:36;;;;;;;8.30;2.50;;;;;;;21.62;59.20;97661.06;5055685;28;20227;-29
2023/06/04 08:47:04;;;;;;;5.20;2.93;;;;;;;21.60;58.94;97653.34;5055608;28;20209;-28
2023/06/04 08:49:35;;;;;;;6.57;3.20;;;;;;;21.62;59.12;97661.91;5059559;28;20265;-28
2023/06/04 08:52:02;;;;;;;5.17;3.00;;;;;;;21.62;59.13;97661.91;5073586;28;20686;-30
2023/06/04 08:54:30;;;;;;;11.50;2.87;;;;;;;21.61;59.10;97652.53;5061568;28;20699;-29
2023/06/04 08:57:00;;;;;;;4.87;2.60;;;;;;;21.59;59.11;97650.75;5070700;28;20258;-28
2023/06/04 08:59:27;;;;;;;4.20;2.80;;;;;;;21.60;58.93;97655.03;5071165;28;20204;-30
2023/06/04 09:01:54;;;;;;;9.17;3.10;;;;;;;21.61;58.87;97651.66;5052822;28;20570;-30
2023/06/04 09:04:21;;;;;;;6.23;2.83;;;;;;;21.61;59.22;97660.19;5040567;28;20231;-28
2023/06/04 09:06:47;;;;;;;3.90;2.63;;;;;;;21.60;59.19;97653.34;5061724;28;20250;-29
2023/06/04 09:09:15;;;;;;;6.20;2.80;;;;;;;21.58;59.06;97649.88;5045971;28;20196;-29
2023/06/04 09:11:48;;;;;;;7.23;3.37;;;;;;;21.59;59.29;97651.59;5039828;28;20620;-28
2023/06/04 09:14:16;;;;;;;6.40;2.80;;;;;;;21.61;59.37;97659.31;5042083;28;20228;-28
2023/06/04 09:16:50;;;;;;;6.37;2.83;;;;;;;21.59;59.30;97659.28;5045947;28;20203;-28
2023/06/04 09:19:17;;;;;;;3.07;2.50;;;;;;;21.62;59.37;97653.41;5066619;28;20212;-28
2023/06/04 09:21:48;;;;;;;5.53;2.80;;;;;;;21.61;59.13;97649.97;5061134;28;20220;-28
2023/06/04 09:24:14;;;;;;;4.90;2.93;;;;;;;21.61;59.15;97651.66;5058624;28;20228;-29
2023/06/04 09:26:41;;;;;;;7.60;2.93;;;;;;;21.61;59.04;97649.97;5048416;28;20258;-28
2023/06/04 09:29:07;;;;;;;6.67;3.00;;;;;;;21.61;58.80;97651.66;5067548;28;20682;-30
2023/06/04 09:31:36;;;;;;;6.17;3.27;;;;;;;21.61;58.58;97649.97;5067738;28;20658;-29
2023/06/04 09:34:03;;;;;;;4.93;2.70;;;;;;;21.59;58.93;97645.63;5065084;28;20424;-28
2023/06/04 09:36:30;;;;;;;7.90;3.17;;;;;;;21.61;58.93;97649.97;5068393;28;20188;-29
2023/06/04 09:38:57;;;;;;;6.87;2.90;;;;;;;21.58;59.08;97639.63;5069925;28;20615;-28
2023/06/04 09:41:25;;;;;;;3.33;2.47;;;;;;;21.62;58.75;97644.03;5054640;28;20291;-37
2023/06/04 09:44:02;;;;;;;3.70;2.40;;;;;;;21.63;58.91;97645.78;5044908;28;20598;-28
2023/06/04 09:46:30;;;;;;;3.40;2.50;;;;;;;21.63;59.30;97639.78;5062542;28;20204;-29
2023/06/04 09:49:03;;;;;;;5.17;2.60;;;;;;;21.63;58.77;97644.91;5076865;28;20203;-29
2023/06/04 09:51:30;;;;;;;4.47;2.60;;;;;;;21.63;59.06;97638.09;5065148;28;20188;-29
2023/06/04 09:53:58;;;;;;;4.10;2.70;;;;;;;21.64;58.81;97651.75;5051443;28;20227;-28
2023/06/04 09:56:26;;;;;;;6.23;2.70;;;;;;;21.61;58.64;97639.75;5067826;28;20280;-29
2023/06/04 09:58:55;;;;;;;6.30;3.03;;;;;;;21.64;58.32;97639.84;5068312;28;20662;-30
2023/06/04 10:01:23;;;;;;;4.60;2.93;;;;;;;21.61;58.11;97643.97;5061344;28;20224;-29
2023/06/04 10:03:50;;;;;;;5.70;2.97;;;;;;;21.65;57.59;97643.25;5055561;28;20637;-29
2023/06/04 10:06:21;;;;;;;6.27;3.40;;;;;;;21.62;57.58;97638.06;5072182;28;20722;-29
2023/06/04 10:08:48;;;;;;;5.17;3.07;;;;;;;21.66;57.30;97657.78;5038174;28;20200;-29
2023/06/04 10:11:21;;;;;;;4.33;3.20;;;;;;;21.62;57.23;97633.78;5084108;28;20196;-29
2023/06/04 10:13:57;;;;;;;4.40;3.00;;;;;;;21.62;57.12;97627.81;5051115;28;20272;-30
2023/06/04 10:16:24;;;;;;;6.80;3.60;;;;;;;21.63;57.10;97635.56;5048344;28;20270;-28
2023/06/04 10:19:00;;;;;;;8.67;3.53;;;;;;;21.66;56.93;97637.31;5042298;28;20212;-29
2023/06/04 10:21:27;;;;;;;4.83;2.90;;;;;;;21.66;56.71;97645.00;5059820;28;20225;-28
2023/06/04 10:23:54;;;;;;;4.90;3.07;;;;;;;21.66;56.57;97647.56;5047963;28;20220;-29
2023/06/04 10:26:21;;;;;;;7.33;3.10;;;;;;;21.66;56.86;97642.44;5059541;28;20195;-28
2023/06/04 10:28:48;;;;;;;4.27;3.33;;;;;;;21.66;56.67;97640.75;5053453;28;20201;-28
2023/06/04 10:31:15;;;;;;;5.30;3.10;;;;;;;21.66;56.63;97642.44;5056540;28;20201;-29
2023/06/04 10:33:42;;;;;;;4.67;3.07;;;;;;;21.66;56.91;97642.44;5068875;28;20216;-29
2023/06/04 10:36:18;;;;;;;5.83;3.23;;;;;;;21.66;56.78;97638.19;5037465;28;20200;-28
2023/06/04 10:38:46;;;;;;;7.07;3.27;;;;;;;21.64;56.74;97626.16;5078963;28;20693;-28
2023/06/04 10:41:15;;;;;;;4.43;3.00;;;;;;;21.67;56.63;97641.59;5048465;28;20229;-29
2023/06/04 10:43:45;;;;;;;6.17;3.03;;;;;;;21.69;56.60;97627.19;5069789;28;20264;-30
2023/06/04 10:46:13;;;;;;;4.63;3.07;;;;;;;21.68;56.63;97622.91;5074727;28;20210;-29
2023/06/04 10:48:52;;;;;;;4.30;3.20;;;;;;;21.68;56.42;97633.97;5078035;28;20253;-28
2023/06/04 10:51:32;;;;;;;7.37;3.27;;;;;;;21.69;56.44;97637.41;5058208;28;20205;-28
2023/06/04 10:53:59;;;;;;;7.17;3.47;;;;;;;21.70;56.61;97631.47;5042769;28;20233;-28
2023/06/04 10:56:35;;;;;;;5.37;3.00;;;;;;;21.69;56.29;97630.63;5061149;28;20271;-28
2023/06/04 10:59:13;;;;;;;5.93;2.93;;;;;;;21.71;56.32;97633.22;5062595;28;20197;-28
2023/06/04 11:01:40;;;;;;;4.83;2.63;;;;;;;21.70;56.08;97629.78;5079796;28;20716;-29
2023/06/04 11:04:06;;;;;;;5.13;3.33;;;;;;;21.72;56.77;97627.28;5065769;28;20221;-28
2023/06/04 11:06:35;;;;;;;6.73;3.00;;;;;;;21.74;56.20;97625.66;5066048;28;20208;-29
2023/06/04 11:09:03;;;;;;;4.03;3.03;;;;;;;21.73;56.15;97620.47;5075305;28;20193;-29
2023/06/04 11:11:30;;;;;;;7.03;3.47;;;;;;;21.77;56.21;97614.66;5078394;28;20249;-28
2023/06/04 11:14:10;;;;;;;6.40;3.00;;;;;;;21.79;56.10;97623.25;5056651;28;20216;-28
2023/06/04 11:16:36;;;;;;;7.10;3.57;;;;;;;21.79;56.02;97620.69;5062429;28;20201;-31
2023/06/04 11:19:03;;;;;;;3.80;3.13;;;;;;;21.79;56.23;97618.97;5072968;28;20211;-30
2023/06/04 11:21:30;;;;;;;5.23;3.10;;;;;;;21.80;56.13;97620.75;5058836;28;20725;-29
2023/06/04 11:24:00;;;;;;;4.53;3.10;;;;;;;21.81;56.08;97619.03;5061799;28;20232;-28
2023/06/04 11:26:34;;;;;;;5.47;3.00;;;;;;;21.80;55.80;97613.06;5061349;28;20590;-29
2023/06/04 11:29:08;;;;;;;4.93;3.13;;;;;;;21.80;55.55;97622.41;5061210;28;20212;-28
2023/06/04 11:31:44;;;;;;;6.50;3.73;;;;;;;21.80;55.13;97625.84;5062124;28;20205;-29
2023/06/04 11:34:24;;;;;;;5.70;3.00;;;;;;;21.80;54.53;97610.50;5073552;28;20468;-28